Time;durP1;ratioP1;P1;durP2;ratioP2;P2;SDS_P1;SDS_P2;PMS_P1;PMS_P2;Temp;Humidity;BMP_temperature;BMP_pressure;BME280_temperature;BME280_humidity;BME280_pressure;Samples;Min_cycle;Max_cycle;Signal;HPM_P1;HPM_P2
2024/01/20 00:00:55;;;;;;;3.63;2.43;;;;;;;;;;5067140;28;20213;-70
2024/01/20 00:03:20;;;;;;;3.17;2.67;;;;;;;;;;5066472;28;20242;-71
2024/01/20 00:05:46;;;;;;;4.20;2.73;;;;;;;;;;5048262;28;20311;-72
2024/01/20 00:08:11;;;;;;;3.80;2.70;;;;;;;;;;5065847;28;20223;-71
2024/01/20 00:10:37;;;;;;;3.20;2.60;;;;;;;;;;5046084;28;20233;-71
2024/01/20 00:13:02;;;;;;;3.90;2.73;;;;;;;;;;5022379;28;20622;-71
2024/01/20 00:15:27;;;;;;;3.60;2.80;;;;;;;;;;5045343;28;20228;-71
2024/01/20 00:17:53;;;;;;;3.00;2.40;;;;;;;;;;5044974;28;20291;-71
2024/01/20 00:20:18;;;;;;;3.47;2.50;;;;;;;;;;5044732;28;20739;-71
2024/01/20 00:22:44;;;;;;;3.27;2.60;;;;;;;;;;5044697;28;20221;-71
2024/01/20 00:25:10;;;;;;;3.00;2.50;;;;;;;;;;5060808;28;20229;-70
2024/01/20 00:27:35;;;;;;;3.20;2.47;;;;;;;;;;5045074;28;20232;-70
2024/01/20 00:30:01;;;;;;;2.73;2.37;;;;;;;;;;5044492;28;20703;-71
2024/01/20 00:32:26;;;;;;;2.37;2.17;;;;;;;;;;5028710;28;20232;-71
2024/01/20 00:34:52;;;;;;;2.87;2.30;;;;;;;;;;5045014;28;20221;-72
2024/01/20 00:37:17;;;;;;;3.53;2.23;;;;;;;;;;5045769;28;20241;-72
2024/01/20 00:39:42;;;;;;;3.87;2.20;;;;;;;;;;5044257;28;20996;-71
2024/01/20 00:42:08;;;;;;;3.37;2.43;;;;;;;;;;5061308;28;20217;-71
2024/01/20 00:44:33;;;;;;;3.17;2.40;;;;;;;;;;5044527;28;20224;-70
2024/01/20 00:46:59;;;;;;;3.03;2.43;;;;;;;;;;5027346;28;20339;-69
2024/01/20 00:49:24;;;;;;;2.57;2.30;;;;;;;;;;5044690;28;20217;-70
2024/01/20 00:51:49;;;;;;;3.10;2.30;;;;;;;;;;5045010;28;20718;-71
2024/01/20 00:54:15;;;;;;;3.63;2.30;;;;;;;;;;5043448;28;20233;-71
2024/01/20 00:56:40;;;;;;;2.90;2.20;;;;;;;;;;5028185;28;20217;-71
2024/01/20 00:59:05;;;;;;;3.97;2.47;;;;;;;;;;5044973;28;20327;-71
2024/01/20 01:01:31;;;;;;;2.77;2.20;;;;;;;;;;5045949;28;20263;-71
2024/01/20 01:03:56;;;;;;;2.83;2.20;;;;;;;;;;5043177;28;20225;-73
2024/01/20 01:06:21;;;;;;;4.90;2.50;;;;;;;;;;5027921;28;20225;-73
2024/01/20 01:08:47;;;;;;;2.83;2.00;;;;;;;;;;5043960;28;20331;-71
2024/01/20 01:11:12;;;;;;;3.33;2.30;;;;;;;;;;5060241;28;20294;-72
2024/01/20 01:13:39;;;;;;;3.47;2.50;;;;;;;;;;5045765;28;20225;-70
2024/01/20 01:16:04;;;;;;;2.70;2.10;;;;;;;;;;5043721;28;20210;-70
2024/01/20 01:18:30;;;;;;;3.73;2.50;;;;;;;;;;5043982;28;20248;-70
2024/01/20 01:20:55;;;;;;;4.20;2.20;;;;;;;;;;5060899;28;20228;-70
2024/01/20 01:23:20;;;;;;;3.10;2.30;;;;;;;;;;5059843;28;20229;-71
2024/01/20 01:25:46;;;;;;;3.00;2.10;;;;;;;;;;5045465;28;20228;-71
2024/01/20 01:28:11;;;;;;;2.67;2.20;;;;;;;;;;5043255;28;20221;-70
2024/01/20 01:30:36;;;;;;;3.07;2.40;;;;;;;;;;5060705;28;20217;-70
2024/01/20 01:33:02;;;;;;;3.07;2.17;;;;;;;;;;5040950;28;20241;-70
2024/01/20 01:35:27;;;;;;;4.10;2.50;;;;;;;;;;5032872;28;20652;-69
2024/01/20 01:37:53;;;;;;;2.43;2.20;;;;;;;;;;5043584;28;20241;-70
2024/01/20 01:40:18;;;;;;;2.60;2.10;;;;;;;;;;5042882;28;20229;-71
2024/01/20 01:42:43;;;;;;;3.30;2.50;;;;;;;;;;5043421;28;20252;-70
2024/01/20 01:45:09;;;;;;;3.13;2.30;;;;;;;;;;5043147;28;20321;-70
2024/01/20 01:47:35;;;;;;;2.80;2.37;;;;;;;;;;5060384;28;20622;-71
2024/01/20 01:50:00;;;;;;;4.90;2.20;;;;;;;;;;5042223;28;20225;-70
2024/01/20 01:52:26;;;;;;;2.30;2.10;;;;;;;;;;5060243;28;20608;-71
2024/01/20 01:54:52;;;;;;;3.00;2.30;;;;;;;;;;5027153;28;20232;-70
2024/01/20 01:57:17;;;;;;;3.73;2.50;;;;;;;;;;5019185;28;20229;-70
2024/01/20 01:59:43;;;;;;;3.97;2.40;;;;;;;;;;5042454;28;20232;-71
2024/01/20 02:02:08;;;;;;;3.23;2.40;;;;;;;;;;5059405;28;20233;-71
2024/01/20 02:04:34;;;;;;;2.67;2.30;;;;;;;;;;5043088;28;20217;-70
2024/01/20 02:06:59;;;;;;;3.07;2.30;;;;;;;;;;5042639;28;20221;-71
2024/01/20 02:09:25;;;;;;;4.33;2.73;;;;;;;;;;5026350;28;20728;-70
2024/01/20 02:11:50;;;;;;;3.97;2.63;;;;;;;;;;5043065;28;21046;-72
2024/01/20 02:14:16;;;;;;;3.47;2.50;;;;;;;;;;5059126;28;20229;-71
2024/01/20 02:16:41;;;;;;;4.73;2.47;;;;;;;;;;5059776;28;20241;-71
2024/01/20 02:19:06;;;;;;;3.47;2.50;;;;;;;;;;5042070;28;20241;-71
2024/01/20 02:21:36;;;;;;;3.20;2.40;;;;;;;;;;5036098;28;20229;-71
2024/01/20 02:24:01;;;;;;;4.77;2.63;;;;;;;;;;5024202;28;20214;-71
2024/01/20 02:26:27;;;;;;;4.90;2.43;;;;;;;;;;5058120;28;20348;-72
2024/01/20 02:28:52;;;;;;;3.27;2.30;;;;;;;;;;5023638;28;20225;-71
2024/01/20 02:31:18;;;;;;;4.67;2.50;;;;;;;;;;5041115;28;20221;-72
2024/01/20 02:33:43;;;;;;;3.50;2.50;;;;;;;;;;5041087;28;20225;-71
2024/01/20 02:36:08;;;;;;;4.93;2.70;;;;;;;;;;5040792;28;20224;-71
2024/01/20 02:38:34;;;;;;;4.07;2.60;;;;;;;;;;5040564;28;20260;-71
2024/01/20 02:40:59;;;;;;;4.87;2.60;;;;;;;;;;5041625;28;20691;-72
2024/01/20 02:43:24;;;;;;;3.30;2.30;;;;;;;;;;5056837;28;20718;-72
2024/01/20 02:45:50;;;;;;;2.30;1.93;;;;;;;;;;5040165;28;20683;-72
2024/01/20 02:48:15;;;;;;;3.53;2.20;;;;;;;;;;5042353;28;20229;-71
2024/01/20 02:50:40;;;;;;;3.90;2.43;;;;;;;;;;5040626;28;20256;-72
2024/01/20 02:53:05;;;;;;;4.00;2.20;;;;;;;;;;5041721;28;20232;-72
2024/01/20 02:55:32;;;;;;;3.27;2.00;;;;;;;;;;5035686;28;20235;-70
2024/01/20 02:57:57;;;;;;;2.23;2.00;;;;;;;;;;5033182;28;20254;-70
2024/01/20 03:00:23;;;;;;;3.93;1.80;;;;;;;;;;5042451;28;20339;-71
2024/01/20 03:02:48;;;;;;;2.70;2.00;;;;;;;;;;5057595;28;21118;-70
2024/01/20 03:05:14;;;;;;;2.67;2.00;;;;;;;;;;5041580;28;20906;-73
2024/01/20 03:07:39;;;;;;;2.73;2.00;;;;;;;;;;5025331;28;20252;-72
2024/01/20 03:10:04;;;;;;;2.83;2.20;;;;;;;;;;5058103;28;20225;-72
2024/01/20 03:12:30;;;;;;;3.40;2.10;;;;;;;;;;5059193;28;20667;-72
2024/01/20 03:14:55;;;;;;;4.37;2.53;;;;;;;;;;5044660;28;20228;-71
2024/01/20 03:17:21;;;;;;;2.70;2.10;;;;;;;;;;5060999;28;20226;-72
2024/01/20 03:19:46;;;;;;;4.13;2.03;;;;;;;;;;5042758;28;20323;-72
2024/01/20 03:22:12;;;;;;;2.93;2.00;;;;;;;;;;5019137;28;20255;-72
2024/01/20 03:24:37;;;;;;;2.57;1.87;;;;;;;;;;5043119;28;20282;-74
2024/01/20 03:27:02;;;;;;;4.97;2.60;;;;;;;;;;5059501;28;20216;-75
2024/01/20 03:29:28;;;;;;;6.40;2.67;;;;;;;;;;5044538;28;20243;-74
2024/01/20 03:31:53;;;;;;;2.63;2.00;;;;;;;;;;5060077;28;20244;-74
2024/01/20 03:34:20;;;;;;;2.40;1.93;;;;;;;;;;5062757;28;20323;-73
2024/01/20 03:36:46;;;;;;;3.07;2.07;;;;;;;;;;5062344;28;20220;-74
2024/01/20 03:39:11;;;;;;;2.90;2.00;;;;;;;;;;5044665;28;20236;-73
2024/01/20 03:41:36;;;;;;;2.07;1.73;;;;;;;;;;5063249;28;20228;-74
2024/01/20 03:44:02;;;;;;;2.70;2.00;;;;;;;;;;5023483;28;20233;-74
2024/01/20 03:46:27;;;;;;;3.10;1.97;;;;;;;;;;5060567;28;20221;-74
2024/01/20 03:48:53;;;;;;;3.50;2.20;;;;;;;;;;5042490;28;20785;-74
2024/01/20 03:51:18;;;;;;;3.57;2.10;;;;;;;;;;5043432;28;20755;-74
2024/01/20 03:53:43;;;;;;;3.67;2.00;;;;;;;;;;5042109;28;20282;-74
2024/01/20 03:56:09;;;;;;;1.87;1.63;;;;;;;;;;5028877;28;20228;-74
2024/01/20 03:58:36;;;;;;;3.83;2.10;;;;;;;;;;5046665;28;20248;-74
2024/01/20 04:01:01;;;;;;;3.77;2.20;;;;;;;;;;5047506;28;20248;-74
2024/01/20 04:03:27;;;;;;;6.13;2.47;;;;;;;;;;5046745;28;20317;-73
2024/01/20 04:05:52;;;;;;;3.87;2.30;;;;;;;;;;5048345;28;20228;-74
2024/01/20 04:08:17;;;;;;;12.67;4.90;;;;;;;;;;5065870;28;20674;-73
2024/01/20 04:10:43;;;;;;;2.97;2.03;;;;;;;;;;5040189;28;20241;-74
2024/01/20 04:13:08;;;;;;;19.00;7.80;;;;;;;;;;5024077;28;20397;-73
2024/01/20 04:15:34;;;;;;;4.23;2.20;;;;;;;;;;5024772;28;20245;-74
2024/01/20 04:17:59;;;;;;;3.30;2.30;;;;;;;;;;5025099;28;20229;-74
2024/01/20 04:20:24;;;;;;;6.27;2.43;;;;;;;;;;5040747;28;20288;-74
2024/01/20 04:22:50;;;;;;;3.33;1.90;;;;;;;;;;5023649;28;20248;-73
2024/01/20 04:25:15;;;;;;;2.50;1.67;;;;;;;;;;5040470;28;20230;-74
2024/01/20 04:27:40;;;;;;;3.53;2.17;;;;;;;;;;5024807;28;20218;-75
2024/01/20 04:30:09;;;;;;;7.27;2.50;;;;;;;;;;5009601;28;20230;-74
2024/01/20 04:32:36;;;;;;;4.50;2.27;;;;;;;;;;5040908;28;20233;-75
2024/01/20 04:35:01;;;;;;;2.83;1.80;;;;;;;;;;5025819;28;20233;-74
2024/01/20 04:37:26;;;;;;;3.33;1.83;;;;;;;;;;5026568;28;20230;-73
2024/01/20 04:39:51;;;;;;;5.97;2.20;;;;;;;;;;5024648;28;20226;-73
2024/01/20 04:42:17;;;;;;;6.33;2.40;;;;;;;;;;5024965;28;20226;-74
2024/01/20 04:44:42;;;;;;;2.87;1.90;;;;;;;;;;5025033;28;20236;-71
2024/01/20 04:47:08;;;;;;;4.07;2.00;;;;;;;;;;5041988;28;20271;-72
2024/01/20 04:49:33;;;;;;;4.17;2.20;;;;;;;;;;5040212;28;20214;-72
2024/01/20 04:52:01;;;;;;;7.10;2.67;;;;;;;;;;5025743;28;20301;-72
2024/01/20 04:54:27;;;;;;;2.07;1.87;;;;;;;;;;5040829;28;20986;-72
2024/01/20 04:56:52;;;;;;;5.37;2.50;;;;;;;;;;5023239;28;20225;-74
2024/01/20 04:59:17;;;;;;;5.20;2.40;;;;;;;;;;5007687;28;20305;-74
2024/01/20 05:01:45;;;;;;;8.00;2.80;;;;;;;;;;5041263;28;20229;-74
2024/01/20 05:04:10;;;;;;;6.27;2.60;;;;;;;;;;5041676;28;20276;-74
2024/01/20 05:06:35;;;;;;;9.67;3.20;;;;;;;;;;5023764;28;20665;-74
2024/01/20 05:09:01;;;;;;;8.17;3.00;;;;;;;;;;5037364;28;20239;-74
2024/01/20 05:11:26;;;;;;;4.03;2.20;;;;;;;;;;5031284;28;20221;-73
2024/01/20 05:13:52;;;;;;;7.20;2.40;;;;;;;;;;5062164;28;20231;-73
2024/01/20 05:16:18;;;;;;;3.83;2.40;;;;;;;;;;5065341;28;20239;-73
2024/01/20 05:18:43;;;;;;;5.73;2.30;;;;;;;;;;5046296;28;20240;-74
2024/01/20 05:21:12;;;;;;;10.13;3.60;;;;;;;;;;5047614;28;20254;-73
2024/01/20 05:23:37;;;;;;;3.97;2.50;;;;;;;;;;5046978;28;20229;-73
2024/01/20 05:26:02;;;;;;;6.50;2.87;;;;;;;;;;5047383;28;20674;-73
2024/01/20 05:28:28;;;;;;;7.60;2.97;;;;;;;;;;5029228;28;20959;-73
2024/01/20 05:30:53;;;;;;;7.53;3.20;;;;;;;;;;5047974;28;20323;-72
2024/01/20 05:33:18;;;;;;;4.17;2.63;;;;;;;;;;5047442;28;20766;-72
2024/01/20 05:35:43;;;;;;;4.73;2.50;;;;;;;;;;5046734;28;20611;-72
2024/01/20 05:38:09;;;;;;;4.33;2.67;;;;;;;;;;5046523;28;20212;-72
2024/01/20 05:40:34;;;;;;;8.70;3.37;;;;;;;;;;5046852;28;20221;-72
2024/01/20 05:43:00;;;;;;;6.73;3.07;;;;;;;;;;5065455;28;21170;-73
2024/01/20 05:45:25;;;;;;;6.37;3.23;;;;;;;;;;5029771;28;20266;-72
2024/01/20 05:47:50;;;;;;;5.33;2.80;;;;;;;;;;5062532;28;20282;-72
2024/01/20 05:50:16;;;;;;;4.07;2.60;;;;;;;;;;5065618;28;20228;-74
2024/01/20 05:52:41;;;;;;;10.60;3.90;;;;;;;;;;5064068;28;20259;-72
2024/01/20 05:55:07;;;;;;;6.43;3.00;;;;;;;;;;5063235;28;20227;-72
2024/01/20 05:57:32;;;;;;;6.37;3.07;;;;;;;;;;5029539;28;20224;-73
2024/01/20 05:59:58;;;;;;;7.33;2.70;;;;;;;;;;5065285;28;20217;-73
2024/01/20 06:02:23;;;;;;;4.63;2.40;;;;;;;;;;5046494;28;20256;-73
2024/01/20 06:04:48;;;;;;;3.70;2.60;;;;;;;;;;5045672;28;20224;-73
2024/01/20 06:07:14;;;;;;;7.90;3.90;;;;;;;;;;5046153;28;20311;-73
2024/01/20 06:09:39;;;;;;;5.10;2.80;;;;;;;;;;5045965;28;20307;-73
2024/01/20 06:12:05;;;;;;;7.10;2.90;;;;;;;;;;5050799;28;20224;-74
2024/01/20 06:14:30;;;;;;;9.23;3.30;;;;;;;;;;5062399;28;20623;-73
2024/01/20 06:16:55;;;;;;;7.73;3.10;;;;;;;;;;5064368;28;20358;-70
2024/01/20 06:19:21;;;;;;;6.47;3.73;;;;;;;;;;5046278;28;20244;-70
2024/01/20 06:21:46;;;;;;;5.13;2.90;;;;;;;;;;5062432;28;20232;-71
2024/01/20 06:24:12;;;;;;;3.60;2.60;;;;;;;;;;5064304;28;20223;-70
2024/01/20 06:26:37;;;;;;;3.47;2.50;;;;;;;;;;5061541;28;20236;-71
2024/01/20 06:29:03;;;;;;;3.97;2.40;;;;;;;;;;5029900;28;20303;-71
2024/01/20 06:31:28;;;;;;;3.83;2.50;;;;;;;;;;5045755;28;20212;-71
2024/01/20 06:33:53;;;;;;;5.63;2.60;;;;;;;;;;5045936;28;20690;-70
2024/01/20 06:36:21;;;;;;;10.40;3.90;;;;;;;;;;5045566;28;20315;-70
2024/01/20 06:38:47;;;;;;;5.93;2.60;;;;;;;;;;5045573;28;20236;-70
2024/01/20 06:41:12;;;;;;;10.20;4.20;;;;;;;;;;5038091;28;20634;-70
2024/01/20 06:43:38;;;;;;;5.23;2.70;;;;;;;;;;5059409;28;20228;-72
2024/01/20 06:46:03;;;;;;;4.57;2.50;;;;;;;;;;5027707;28;20217;-71
2024/01/20 06:48:32;;;;;;;8.57;3.57;;;;;;;;;;5027793;28;20647;-69
2024/01/20 06:50:59;;;;;;;7.40;2.60;;;;;;;;;;5042476;28;20220;-72
2024/01/20 06:53:25;;;;;;;8.30;2.50;;;;;;;;;;5044602;28;20713;-71
2024/01/20 06:55:50;;;;;;;3.80;2.27;;;;;;;;;;5044926;28;20274;-70
2024/01/20 06:58:16;;;;;;;4.90;2.40;;;;;;;;;;5062249;28;20923;-72
2024/01/20 07:00:41;;;;;;;3.53;2.50;;;;;;;;;;5045031;28;20228;-70
2024/01/20 07:03:06;;;;;;;4.03;2.50;;;;;;;;;;5063730;28;20227;-71
2024/01/20 07:05:31;;;;;;;5.77;2.83;;;;;;;;;;5028913;28;20228;-70
2024/01/20 07:07:57;;;;;;;6.30;2.60;;;;;;;;;;5064760;28;20221;-70
2024/01/20 07:10:22;;;;;;;4.97;2.53;;;;;;;;;;5062232;28;20451;-70
2024/01/20 07:12:47;;;;;;;4.93;2.40;;;;;;;;;;5044198;28;20255;-72
2024/01/20 07:15:13;;;;;;;4.33;2.30;;;;;;;;;;5028427;28;20711;-71
2024/01/20 07:17:38;;;;;;;9.50;2.60;;;;;;;;;;5061412;28;20248;-71
2024/01/20 07:20:04;;;;;;;5.47;2.80;;;;;;;;;;5027755;28;20256;-70
2024/01/20 07:22:31;;;;;;;5.83;2.90;;;;;;;;;;5044842;28;20225;-71
2024/01/20 07:24:56;;;;;;;6.10;2.87;;;;;;;;;;5042131;28;20779;-70
2024/01/20 07:27:22;;;;;;;7.10;3.30;;;;;;;;;;5039789;28;20237;-69
2024/01/20 07:29:47;;;;;;;7.93;3.37;;;;;;;;;;5062194;28;20232;-70
2024/01/20 07:32:12;;;;;;;3.80;2.50;;;;;;;;;;5030086;28;20221;-70
2024/01/20 07:34:38;;;;;;;3.43;2.40;;;;;;;;;;5047236;28;20232;-70
2024/01/20 07:37:03;;;;;;;6.70;2.70;;;;;;;;;;5049162;28;20683;-72
2024/01/20 07:39:29;;;;;;;6.97;3.10;;;;;;;;;;5046715;28;20233;-73
2024/01/20 07:41:54;;;;;;;6.53;3.20;;;;;;;;;;5047583;28;20281;-70
2024/01/20 07:44:19;;;;;;;5.70;2.90;;;;;;;;;;5048220;28;20239;-70
2024/01/20 07:46:45;;;;;;;5.30;3.03;;;;;;;;;;5066380;28;20221;-71
2024/01/20 07:49:10;;;;;;;5.47;3.20;;;;;;;;;;5048683;28;20221;-72
2024/01/20 07:51:35;;;;;;;5.93;2.70;;;;;;;;;;5047875;28;20221;-72
2024/01/20 07:54:01;;;;;;;4.70;2.63;;;;;;;;;;5048647;28;20678;-71
2024/01/20 07:56:26;;;;;;;5.87;3.30;;;;;;;;;;5033053;28;20229;-71
2024/01/20 07:58:52;;;;;;;7.23;4.07;;;;;;;;;;5048454;28;21223;-71
2024/01/20 08:01:17;;;;;;;11.33;5.33;;;;;;;;;;5067169;28;20308;-71
2024/01/20 08:03:43;;;;;;;9.13;4.67;;;;;;;;;;5066726;28;20224;-72
2024/01/20 08:06:08;;;;;;;5.53;3.17;;;;;;;;;;5049049;28;20216;-70
2024/01/20 08:08:33;;;;;;;9.27;4.60;;;;;;;;;;5065279;28;20225;-70
2024/01/20 08:10:59;;;;;;;8.53;3.70;;;;;;;;;;5048571;28;20213;-73
2024/01/20 08:13:24;;;;;;;7.93;3.40;;;;;;;;;;5032175;28;20232;-70
2024/01/20 08:15:49;;;;;;;6.13;3.50;;;;;;;;;;5047852;28;20224;-71
2024/01/20 08:18:15;;;;;;;8.63;3.50;;;;;;;;;;5066556;28;20252;-72
2024/01/20 08:20:40;;;;;;;5.83;3.80;;;;;;;;;;5048247;28;20327;-72
2024/01/20 08:23:05;;;;;;;8.63;4.00;;;;;;;;;;5065611;28;20698;-73
2024/01/20 08:25:31;;;;;;;82.53;20.17;;;;;;;;;;5032115;28;20249;-72
2024/01/20 08:27:56;;;;;;;25.87;8.10;;;;;;;;;;5031818;28;20225;-71
2024/01/20 08:30:22;;;;;;;7.03;3.57;;;;;;;;;;5048570;28;20220;-70
2024/01/20 08:32:47;;;;;;;7.47;3.43;;;;;;;;;;5066256;28;20233;-71
2024/01/20 08:35:12;;;;;;;6.80;3.97;;;;;;;;;;5064407;28;20224;-71
2024/01/20 08:37:37;;;;;;;7.73;4.20;;;;;;;;;;5030950;28;20256;-72
2024/01/20 08:40:03;;;;;;;8.30;4.67;;;;;;;;;;5047048;28;20224;-71
2024/01/20 08:42:28;;;;;;;8.60;4.00;;;;;;;;;;5064428;28;20744;-72
2024/01/20 08:44:54;;;;;;;9.67;5.00;;;;;;;;;;5047838;28;20268;-72
2024/01/20 08:47:19;;;;;;;7.57;4.00;;;;;;;;;;5031301;28;20260;-71
2024/01/20 08:49:47;;;;;;;9.27;4.70;;;;;;;;;;5063310;28;20224;-70
2024/01/20 08:52:13;;;;;;;10.20;4.30;;;;;;;;;;5064264;28;20232;-72
2024/01/20 08:54:38;;;;;;;9.03;4.90;;;;;;;;;;5063587;28;20255;-75
2024/01/20 08:57:04;;;;;;;12.47;4.20;;;;;;;;;;5065892;28;20260;-74
2024/01/20 08:59:30;;;;;;;9.13;4.80;;;;;;;;;;5046314;28;20324;-73
2024/01/20 09:01:55;;;;;;;9.03;4.37;;;;;;;;;;5031460;28;20221;-74
2024/01/20 09:04:20;;;;;;;8.50;4.50;;;;;;;;;;5047272;28;20225;-75
2024/01/20 09:06:46;;;;;;;14.73;7.10;;;;;;;;;;5064925;28;20256;-76
2024/01/20 09:09:11;;;;;;;14.97;7.73;;;;;;;;;;5030841;28;20233;-74
2024/01/20 09:11:36;;;;;;;12.83;5.67;;;;;;;;;;5046834;28;20220;-73
2024/01/20 09:14:02;;;;;;;14.00;6.40;;;;;;;;;;5066065;28;20676;-74
2024/01/20 09:16:27;;;;;;;16.63;9.23;;;;;;;;;;5033507;28;20221;-74
2024/01/20 09:18:53;;;;;;;16.87;8.33;;;;;;;;;;5046161;28;20236;-74
2024/01/20 09:21:18;;;;;;;11.30;6.43;;;;;;;;;;5047068;28;20227;-73
2024/01/20 09:23:43;;;;;;;13.03;6.70;;;;;;;;;;5046656;28;20232;-73
2024/01/20 09:26:09;;;;;;;11.37;5.93;;;;;;;;;;5046472;28;20213;-73
2024/01/20 09:28:34;;;;;;;11.73;6.70;;;;;;;;;;5030570;28;20273;-74
2024/01/20 09:30:59;;;;;;;12.60;7.17;;;;;;;;;;5049304;28;20304;-74
2024/01/20 09:33:25;;;;;;;15.93;8.30;;;;;;;;;;5070047;28;20303;-74
2024/01/20 09:35:50;;;;;;;38.47;22.00;;;;;;;;;;5029355;28;20234;-74
2024/01/20 09:38:15;;;;;;;24.37;14.33;;;;;;;;;;5064258;28;20901;-75
2024/01/20 09:40:41;;;;;;;13.27;6.87;;;;;;;;;;5046344;28;20223;-75
2024/01/20 09:43:06;;;;;;;13.47;6.90;;;;;;;;;;5044802;28;20212;-74
2024/01/20 09:45:38;;;;;;;17.17;6.93;;;;;;;;;;5055186;28;20303;-74
2024/01/20 09:48:03;;;;;;;14.60;6.97;;;;;;;;;;5045505;28;20816;-74
2024/01/20 09:50:29;;;;;;;15.13;7.60;;;;;;;;;;5045435;28;20220;-74
2024/01/20 09:53:00;;;;;;;14.10;7.50;;;;;;;;;;5063097;28;20217;-74
2024/01/20 09:55:27;;;;;;;15.80;7.20;;;;;;;;;;5061269;28;20232;-74
2024/01/20 09:57:53;;;;;;;20.50;8.30;;;;;;;;;;5044652;28;20229;-75
2024/01/20 10:00:20;;;;;;;15.30;7.27;;;;;;;;;;5043661;28;20228;-73
2024/01/20 10:02:45;;;;;;;17.70;7.97;;;;;;;;;;5061576;28;20220;-75
2024/01/20 10:05:11;;;;;;;16.17;7.83;;;;;;;;;;5062026;28;20236;-75
2024/01/20 10:07:36;;;;;;;19.67;8.30;;;;;;;;;;5027922;28;20232;-74
2024/01/20 10:10:02;;;;;;;18.83;8.20;;;;;;;;;;5058253;28;20248;-71
2024/01/20 10:12:28;;;;;;;18.77;7.90;;;;;;;;;;5024537;28;20589;-70
2024/01/20 10:14:53;;;;;;;19.97;8.80;;;;;;;;;;5024878;28;20224;-71
2024/01/20 10:17:18;;;;;;;15.63;8.30;;;;;;;;;;5057381;28;20295;-71
2024/01/20 10:19:44;;;;;;;19.43;8.40;;;;;;;;;;5044387;28;20248;-70
2024/01/20 10:22:09;;;;;;;17.87;8.00;;;;;;;;;;5041418;28;20248;-71
2024/01/20 10:24:44;;;;;;;17.37;8.37;;;;;;;;;;5042869;28;20232;-71
2024/01/20 10:27:12;;;;;;;15.13;8.07;;;;;;;;;;5037294;28;20300;-71
2024/01/20 10:29:38;;;;;;;16.97;9.10;;;;;;;;;;5024799;28;20590;-71
2024/01/20 10:32:03;;;;;;;19.33;8.90;;;;;;;;;;5042529;28;20851;-72
2024/01/20 10:34:29;;;;;;;16.03;8.37;;;;;;;;;;5058830;28;20229;-72
2024/01/20 10:36:54;;;;;;;16.17;7.90;;;;;;;;;;5043920;28;20221;-72
2024/01/20 10:39:20;;;;;;;15.70;8.50;;;;;;;;;;5059888;28;20244;-71
2024/01/20 10:41:46;;;;;;;16.23;8.00;;;;;;;;;;5025545;28;20241;-72
2024/01/20 10:44:12;;;;;;;17.27;8.27;;;;;;;;;;5042374;28;20256;-72
2024/01/20 10:46:38;;;;;;;17.30;9.17;;;;;;;;;;5042519;28;20273;-71
2024/01/20 10:49:04;;;;;;;16.87;8.80;;;;;;;;;;5026006;28;20225;-70
2024/01/20 10:51:30;;;;;;;17.90;8.33;;;;;;;;;;5042458;28;20221;-72
2024/01/20 10:53:56;;;;;;;17.00;8.70;;;;;;;;;;5042225;28;20217;-73
2024/01/20 10:56:21;;;;;;;17.63;9.40;;;;;;;;;;5042485;28;20251;-73
2024/01/20 10:58:48;;;;;;;18.33;9.07;;;;;;;;;;5058980;28;20257;-73
2024/01/20 11:01:14;;;;;;;16.10;8.67;;;;;;;;;;5059906;28;20327;-73
2024/01/20 11:03:39;;;;;;;20.90;9.47;;;;;;;;;;5058922;28;21197;-71
2024/01/20 11:06:05;;;;;;;17.73;8.90;;;;;;;;;;5042196;28;20271;-71
2024/01/20 11:08:31;;;;;;;18.33;9.60;;;;;;;;;;5045337;28;20664;-72
2024/01/20 11:10:56;;;;;;;17.60;8.47;;;;;;;;;;5064559;28;20285;-71
2024/01/20 11:13:25;;;;;;;19.17;9.17;;;;;;;;;;5062039;28;20235;-72
2024/01/20 11:15:51;;;;;;;18.33;8.57;;;;;;;;;;5028091;28;20298;-73
2024/01/20 11:18:19;;;;;;;17.37;8.47;;;;;;;;;;5063980;28;20237;-71
2024/01/20 11:21:00;;;;;;;18.63;8.83;;;;;;;;;;5063196;28;20225;-72
2024/01/20 11:23:25;;;;;;;19.17;9.00;;;;;;;;;;5054900;28;20226;-72
2024/01/20 11:25:51;;;;;;;21.17;9.40;;;;;;;;;;5061331;28;20289;-72
2024/01/20 11:28:24;;;;;;;17.57;9.13;;;;;;;;;;5060900;28;20228;-73
2024/01/20 11:30:49;;;;;;;19.63;9.40;;;;;;;;;;5058907;28;20228;-73
2024/01/20 11:33:15;;;;;;;20.03;9.30;;;;;;;;;;5028224;28;20621;-73
2024/01/20 11:35:40;;;;;;;16.60;9.20;;;;;;;;;;5044574;28;20234;-70
2024/01/20 11:38:06;;;;;;;16.93;8.77;;;;;;;;;;5062417;28;20252;-72
2024/01/20 11:40:31;;;;;;;19.37;9.03;;;;;;;;;;5044293;28;20689;-72
2024/01/20 11:43:06;;;;;;;20.67;9.40;;;;;;;;;;5062324;28;20278;-74
2024/01/20 11:45:32;;;;;;;17.53;8.47;;;;;;;;;;5044395;28;20224;-72
2024/01/20 11:47:57;;;;;;;19.73;9.07;;;;;;;;;;5061990;28;20217;-72
2024/01/20 11:50:22;;;;;;;19.30;9.47;;;;;;;;;;5028819;28;20714;-72
2024/01/20 11:52:48;;;;;;;18.93;9.27;;;;;;;;;;5063956;28;20358;-72
2024/01/20 11:55:13;;;;;;;19.83;9.00;;;;;;;;;;5063233;28;20290;-72
2024/01/20 11:57:39;;;;;;;16.40;8.60;;;;;;;;;;5027370;28;20221;-73
2024/01/20 12:00:08;;;;;;;16.87;8.57;;;;;;;;;;5044740;28;20228;-73
2024/01/20 12:02:33;;;;;;;21.60;10.03;;;;;;;;;;5062298;28;20278;-73
2024/01/20 12:04:58;;;;;;;20.50;9.90;;;;;;;;;;5027407;28;20269;-72
2024/01/20 12:07:24;;;;;;;17.97;9.17;;;;;;;;;;5062540;28;20231;-74
2024/01/20 12:09:50;;;;;;;16.60;8.77;;;;;;;;;;5014040;28;20234;-72
2024/01/20 12:12:17;;;;;;;17.50;8.90;;;;;;;;;;5009553;28;20241;-71
2024/01/20 12:14:43;;;;;;;19.03;9.40;;;;;;;;;;5024514;28;20290;-72
2024/01/20 12:17:09;;;;;;;18.43;9.10;;;;;;;;;;5024975;28;20219;-70
2024/01/20 12:19:35;;;;;;;15.37;8.43;;;;;;;;;;5009454;28;20226;-73
2024/01/20 12:22:01;;;;;;;14.47;7.87;;;;;;;;;;5027021;28;20221;-72
2024/01/20 12:24:26;;;;;;;18.90;8.43;;;;;;;;;;5027865;28;20222;-72
2024/01/20 12:26:52;;;;;;;15.63;8.70;;;;;;;;;;5026088;28;21587;-72
2024/01/20 12:29:17;;;;;;;18.00;9.37;;;;;;;;;;5004211;28;20225;-72
2024/01/20 12:31:43;;;;;;;19.97;9.07;;;;;;;;;;5012802;28;20222;-72
2024/01/20 12:34:08;;;;;;;19.60;8.83;;;;;;;;;;5028060;28;20313;-72
2024/01/20 12:36:33;;;;;;;18.57;8.50;;;;;;;;;;5026168;28;20214;-72
2024/01/20 12:38:59;;;;;;;18.00;8.63;;;;;;;;;;5028998;28;20677;-73
2024/01/20 12:41:26;;;;;;;18.33;9.33;;;;;;;;;;5028011;28;20222;-73
2024/01/20 12:43:51;;;;;;;17.83;8.40;;;;;;;;;;5007211;28;20277;-73
2024/01/20 12:46:17;;;;;;;17.60;8.63;;;;;;;;;;5027984;28;20219;-73
2024/01/20 12:48:43;;;;;;;19.73;9.37;;;;;;;;;;5028303;28;20222;-73
2024/01/20 12:51:09;;;;;;;18.40;9.43;;;;;;;;;;5030359;28;20222;-73
2024/01/20 12:53:34;;;;;;;18.87;9.93;;;;;;;;;;5026350;28;20230;-72
2024/01/20 12:55:59;;;;;;;20.30;10.20;;;;;;;;;;5029146;28;20249;-72
2024/01/20 12:58:25;;;;;;;17.97;8.97;;;;;;;;;;5025908;28;20234;-72
2024/01/20 13:00:50;;;;;;;16.40;8.83;;;;;;;;;;5027472;28;20310;-72
2024/01/20 13:03:15;;;;;;;18.07;8.80;;;;;;;;;;5028648;28;20650;-73
2024/01/20 13:05:43;;;;;;;15.40;8.17;;;;;;;;;;5026769;28;20883;-71
2024/01/20 13:08:08;;;;;;;18.57;9.33;;;;;;;;;;5026672;28;20616;-72
2024/01/20 13:10:33;;;;;;;21.70;11.17;;;;;;;;;;5026926;28;20248;-72
2024/01/20 13:12:59;;;;;;;19.43;9.30;;;;;;;;;;5028528;28;20237;-73
2024/01/20 13:15:26;;;;;;;18.47;9.03;;;;;;;;;;5026424;28;20271;-72
2024/01/20 13:17:51;;;;;;;18.30;8.90;;;;;;;;;;5024269;28;20652;-72
2024/01/20 13:20:17;;;;;;;16.43;8.50;;;;;;;;;;5026990;28;20285;-74
2024/01/20 13:22:43;;;;;;;13.63;8.07;;;;;;;;;;5011036;28;20776;-72
2024/01/20 13:25:08;;;;;;;15.80;7.90;;;;;;;;;;5011250;28;20730;-71
2024/01/20 13:27:33;;;;;;;14.67;7.80;;;;;;;;;;5027854;28;20222;-72
2024/01/20 13:29:59;;;;;;;14.67;8.17;;;;;;;;;;5026960;28;20703;-72
2024/01/20 13:32:24;;;;;;;16.47;8.47;;;;;;;;;;5026775;28;20226;-71
2024/01/20 13:34:50;;;;;;;17.17;8.80;;;;;;;;;;5025738;28;20222;-72
2024/01/20 13:37:15;;;;;;;16.40;8.97;;;;;;;;;;5029238;28;20241;-72
2024/01/20 13:39:40;;;;;;;19.23;9.57;;;;;;;;;;5026729;28;20264;-73
2024/01/20 13:42:06;;;;;;;17.93;9.63;;;;;;;;;;5026105;28;20276;-73
2024/01/20 13:44:31;;;;;;;16.37;8.40;;;;;;;;;;5030291;28;20646;-74
2024/01/20 13:46:56;;;;;;;18.70;8.40;;;;;;;;;;5012403;28;20882;-73
2024/01/20 13:49:22;;;;;;;16.50;8.37;;;;;;;;;;5028004;28;20296;-73
2024/01/20 13:51:47;;;;;;;20.47;9.47;;;;;;;;;;5009517;28;20233;-73
2024/01/20 13:54:12;;;;;;;17.47;9.00;;;;;;;;;;5009978;28;20226;-73
2024/01/20 13:56:38;;;;;;;20.27;9.20;;;;;;;;;;5025930;28;20233;-74
2024/01/20 13:59:03;;;;;;;24.27;10.53;;;;;;;;;;5026189;28;20241;-73
2024/01/20 14:01:28;;;;;;;20.10;10.07;;;;;;;;;;5024855;28;20229;-73
2024/01/20 14:03:54;;;;;;;17.97;10.10;;;;;;;;;;5024402;28;20218;-73
2024/01/20 14:06:19;;;;;;;23.93;10.77;;;;;;;;;;5010114;28;20795;-73
2024/01/20 14:08:44;;;;;;;20.63;11.03;;;;;;;;;;5028397;28;20244;-74
2024/01/20 14:11:10;;;;;;;21.47;10.63;;;;;;;;;;5043105;28;20263;-73
2024/01/20 14:13:35;;;;;;;20.20;10.83;;;;;;;;;;5041493;28;20229;-72
2024/01/20 14:16:01;;;;;;;20.57;10.57;;;;;;;;;;5044215;28;20221;-72
2024/01/20 14:18:26;;;;;;;21.33;10.97;;;;;;;;;;5044267;28;20316;-74
2024/01/20 14:20:51;;;;;;;25.20;13.40;;;;;;;;;;5025960;28;20224;-72
2024/01/20 14:23:17;;;;;;;24.87;11.57;;;;;;;;;;5043733;28;20230;-72
2024/01/20 14:25:42;;;;;;;46.43;20.50;;;;;;;;;;5043561;28;20232;-72